PRRLC SBSJ-SBGL
Flight info
| Callsign | PRRLC |
|---|---|
| Flight time | N/A |
| Altitude | 20000 |
| Route | VUSM3A DAGUB VUREP PABEB1A SBGL/10 |
| Aircraft | BE9L/L-SDFGRY/S |
Departure
| Time | 2026-04-24 01:32 |
|---|---|
| Airport | Professor Urbano Ernesto Stumpf Airport (SBSJ) |
Arrival
| Time | N/A |
|---|---|
| Airport | Rio Galeão – Tom Jobim International Airport (SBGL) |
| Time | Latitude | Longitude | Altitude | Speed | Heading |
|---|---|---|---|---|---|
| 2026-04-24 01:30 | -23.21935 | -45.87156 | 2124 ft | 0 kts | 216° |
| 2026-04-24 01:31 | -23.21940 | -45.87160 | 2124 ft | 0 kts | 216° |
| 2026-04-24 01:31 | -23.21992 | -45.87165 | 2124 ft | 18 kts | 139° |
| 2026-04-24 01:31 | -23.22330 | -45.86798 | 2133 ft | 115 kts | 135° |
| 2026-04-24 01:32 | -23.22911 | -45.86067 | 2664 ft | 137 kts | 121° |
| 2026-04-24 01:32 | -23.23326 | -45.85336 | 3016 ft | 157 kts | 135° |
| 2026-04-24 01:32 | -23.24172 | -45.84692 | 3902 ft | 151 kts | 141° |
| 2026-04-24 01:32 | -23.24972 | -45.83928 | 4610 ft | 157 kts | 134° |
| 2026-04-24 01:33 | -23.25742 | -45.83102 | 5338 ft | 159 kts | 133° |
| 2026-04-24 01:33 | -23.26525 | -45.82251 | 6039 ft | 161 kts | 133° |
| 2026-04-24 01:33 | -23.27313 | -45.81393 | 6710 ft | 164 kts | 132° |
| 2026-04-24 01:33 | -23.28070 | -45.80474 | 7341 ft | 165 kts | 116° |
| 2026-04-24 01:34 | -23.28167 | -45.79271 | 7940 ft | 165 kts | 69° |
| 2026-04-24 01:34 | -23.27455 | -45.78359 | 8590 ft | 164 kts | 34° |
| 2026-04-24 01:34 | -23.26448 | -45.77877 | 9189 ft | 165 kts | 18° |
| 2026-04-24 01:34 | -23.25336 | -45.77578 | 9761 ft | 167 kts | 13° |
| 2026-04-24 01:35 | -23.24186 | -45.77343 | 10331 ft | 169 kts | 11° |
| 2026-04-24 01:35 | -23.23039 | -45.77134 | 10885 ft | 169 kts | 10° |
| 2026-04-24 01:35 | -23.21887 | -45.76931 | 11454 ft | 169 kts | 9° |
| 2026-04-24 01:35 | -23.20751 | -45.76733 | 11982 ft | 169 kts | 9° |
| 2026-04-24 01:36 | -23.19595 | -45.76534 | 12508 ft | 169 kts | 9° |
| 2026-04-24 01:36 | -23.18451 | -45.76336 | 13025 ft | 168 kts | 9° |
| 2026-04-24 01:36 | -23.17314 | -45.76140 | 13523 ft | 168 kts | 9° |
| 2026-04-24 01:36 | -23.16161 | -45.75941 | 14016 ft | 168 kts | 8° |
| 2026-04-24 01:37 | -23.15022 | -45.75744 | 14496 ft | 167 kts | 8° |
| 2026-04-24 01:37 | -23.13886 | -45.75548 | 14963 ft | 167 kts | 8° |
| 2026-04-24 01:37 | -23.12741 | -45.75351 | 15426 ft | 167 kts | 8° |
| 2026-04-24 01:37 | -23.11638 | -45.75016 | 15846 ft | 169 kts | 26° |
| 2026-04-24 01:38 | -23.10657 | -45.74331 | 16312 ft | 168 kts | 31° |
| 2026-04-24 01:38 | -23.09707 | -45.73600 | 16734 ft | 169 kts | 32° |
| 2026-04-24 01:38 | -23.08757 | -45.72857 | 17150 ft | 169 kts | 32° |
| 2026-04-24 01:38 | -23.07825 | -45.72123 | 17552 ft | 169 kts | 32° |
| 2026-04-24 01:39 | -23.07304 | -45.71712 | 17772 ft | 169 kts | 32° |
| 2026-04-24 01:39 | -23.06381 | -45.70984 | 18155 ft | 170 kts | 32° |
| 2026-04-24 01:39 | -23.05499 | -45.70288 | 18510 ft | 170 kts | 31° |
| 2026-04-24 01:39 | -23.04546 | -45.69536 | 18887 ft | 170 kts | 31° |
| 2026-04-24 01:40 | -23.03597 | -45.68787 | 19253 ft | 171 kts | 31° |
| 2026-04-24 01:40 | -23.02631 | -45.68024 | 19619 ft | 171 kts | 31° |
| 2026-04-24 01:40 | -23.01674 | -45.67270 | 19972 ft | 171 kts | 31° |
| 2026-04-24 01:40 | -23.00689 | -45.66495 | 20152 ft | 182 kts | 31° |
| 2026-04-24 01:41 | -22.99612 | -45.65648 | 20169 ft | 198 kts | 31° |
| 2026-04-24 01:41 | -22.98473 | -45.64743 | 20164 ft | 212 kts | 34° |
| 2026-04-24 01:41 | -22.97651 | -45.63381 | 20134 ft | 233 kts | 70° |
| 2026-04-24 01:41 | -22.97581 | -45.61597 | 20174 ft | 245 kts | 94° |
| 2026-04-24 01:42 | -22.97906 | -45.59737 | 20155 ft | 253 kts | 99° |
| 2026-04-24 01:42 | -22.98278 | -45.57868 | 20144 ft | 257 kts | 99° |
| 2026-04-24 01:42 | -22.98653 | -45.55969 | 20139 ft | 260 kts | 99° |
| 2026-04-24 01:42 | -22.99033 | -45.54047 | 20134 ft | 262 kts | 99° |
| 2026-04-24 01:43 | -22.99412 | -45.52125 | 20130 ft | 263 kts | 99° |
| 2026-04-24 01:43 | -22.99797 | -45.50168 | 20127 ft | 264 kts | 99° |
| 2026-04-24 01:43 | -23.00181 | -45.48220 | 20127 ft | 264 kts | 99° |
| 2026-04-24 01:43 | -23.00560 | -45.46294 | 20127 ft | 265 kts | 99° |
| 2026-04-24 01:44 | -23.00949 | -45.44317 | 20127 ft | 265 kts | 99° |
| 2026-04-24 01:44 | -23.01328 | -45.42388 | 20127 ft | 265 kts | 99° |
| 2026-04-24 01:44 | -23.01714 | -45.40424 | 20127 ft | 265 kts | 99° |
| 2026-04-24 01:44 | -23.02094 | -45.38492 | 20107 ft | 258 kts | 99° |
| 2026-04-24 01:45 | -23.02463 | -45.36612 | 20094 ft | 249 kts | 99° |
| 2026-04-24 01:45 | -23.02815 | -45.34817 | 20095 ft | 238 kts | 98° |
| 2026-04-24 01:45 | -23.03142 | -45.33142 | 20094 ft | 228 kts | 98° |
| 2026-04-24 01:45 | -23.03466 | -45.31484 | 20100 ft | 221 kts | 98° |
| 2026-04-24 01:46 | -23.03782 | -45.29865 | 20119 ft | 219 kts | 98° |
| 2026-04-24 01:46 | -23.04102 | -45.28226 | 20122 ft | 219 kts | 98° |
| 2026-04-24 01:46 | -23.04417 | -45.26610 | 20125 ft | 219 kts | 98° |
| 2026-04-24 01:46 | -23.04732 | -45.24995 | 20126 ft | 219 kts | 98° |
| 2026-04-24 01:47 | -23.05051 | -45.23361 | 20126 ft | 220 kts | 98° |
| 2026-04-24 01:47 | -23.05368 | -45.21734 | 20125 ft | 219 kts | 98° |
| 2026-04-24 01:47 | -23.05686 | -45.20105 | 20125 ft | 219 kts | 98° |
| 2026-04-24 01:47 | -23.06006 | -45.18460 | 20125 ft | 219 kts | 98° |
| 2026-04-24 01:48 | -23.06323 | -45.16832 | 20123 ft | 219 kts | 98° |
| 2026-04-24 01:48 | -23.06639 | -45.15213 | 20125 ft | 218 kts | 98° |
| 2026-04-24 01:48 | -23.06953 | -45.13597 | 20125 ft | 218 kts | 98° |
| 2026-04-24 01:48 | -23.07271 | -45.11962 | 20126 ft | 218 kts | 98° |
| 2026-04-24 01:49 | -23.07586 | -45.10341 | 20126 ft | 218 kts | 98° |
| 2026-04-24 01:49 | -23.07894 | -45.08756 | 20125 ft | 217 kts | 98° |
| 2026-04-24 01:49 | -23.08208 | -45.07139 | 20115 ft | 216 kts | 98° |
| 2026-04-24 01:49 | -23.08514 | -45.05561 | 20113 ft | 213 kts | 98° |
| 2026-04-24 01:50 | -23.08819 | -45.03988 | 20121 ft | 211 kts | 97° |
| 2026-04-24 01:50 | -23.09123 | -45.02416 | 20119 ft | 211 kts | 97° |
| 2026-04-24 01:50 | -23.09423 | -45.00868 | 20123 ft | 210 kts | 97° |
| 2026-04-24 01:50 | -23.09723 | -44.99320 | 20122 ft | 209 kts | 97° |
| 2026-04-24 01:51 | -23.10025 | -44.97756 | 20125 ft | 209 kts | 97° |
| 2026-04-24 01:51 | -23.10322 | -44.96219 | 20126 ft | 208 kts | 97° |
| 2026-04-24 01:51 | -23.10622 | -44.94666 | 20126 ft | 208 kts | 97° |
| 2026-04-24 01:51 | -23.10919 | -44.93130 | 20126 ft | 208 kts | 97° |
| 2026-04-24 01:52 | -23.11208 | -44.91578 | 20123 ft | 207 kts | 92° |
| 2026-04-24 01:52 | -23.10892 | -44.90132 | 20106 ft | 192 kts | 47° |